sensor_id;sensor_type;location;lat;lon;timestamp;pressure;altitude;pressure_sealevel;temperature;humidity
5917;BME280;2984;42.656;23.300;2022-12-19T14:00:33;96228.28;;;1.55;69.50
5917;BME280;2984;42.656;23.300;2022-12-19T14:03:02;96268.47;;;1.97;69.41
5917;BME280;2984;42.656;23.300;2022-12-19T14:05:35;96173.78;;;1.16;69.33
5917;BME280;2984;42.656;23.300;2022-12-19T14:10:44;96139.00;;;1.01;70.56
5917;BME280;2984;42.656;23.300;2022-12-19T14:13:16;96257.88;;;1.65;70.25
5917;BME280;2984;42.656;23.300;2022-12-19T14:16:01;96255.63;;;1.79;71.12
5917;BME280;2984;42.656;23.300;2022-12-19T14:18:31;96261.41;;;1.51;70.45
5917;BME280;2984;42.656;23.300;2022-12-19T14:21:13;96264.06;;;1.64;70.79
5917;BME280;2984;42.656;23.300;2022-12-19T14:23:42;96262.16;;;1.51;70.30
5917;BME280;2984;42.656;23.300;2022-12-19T14:26:13;96280.63;;;1.47;69.43
5917;BME280;2984;42.656;23.300;2022-12-19T14:28:50;96252.69;;;1.39;68.82
5917;BME280;2984;42.656;23.300;2022-12-19T14:31:23;96224.56;;;0.99;69.64
5917;BME280;2984;42.656;23.300;2022-12-19T14:33:55;96268.13;;;1.40;69.76
5917;BME280;2984;42.656;23.300;2022-12-19T14:36:26;96267.75;;;1.28;69.71
5917;BME280;2984;42.656;23.300;2022-12-19T14:38:57;96256.78;;;1.61;70.70
5917;BME280;2984;42.656;23.300;2022-12-19T14:41:36;96244.13;;;1.45;69.32
5917;BME280;2984;42.656;23.300;2022-12-19T14:44:18;96131.34;;;0.56;69.35
5917;BME280;2984;42.656;23.300;2022-12-19T14:47:02;96254.88;;;1.86;68.55
5917;BME280;2984;42.656;23.300;2022-12-19T14:49:33;96252.69;;;1.62;69.28
5917;BME280;2984;42.656;23.300;2022-12-19T14:52:03;96248.00;;;1.72;68.88
5917;BME280;2984;42.656;23.300;2022-12-19T14:54:31;96248.19;;;1.66;68.77
5917;BME280;2984;42.656;23.300;2022-12-19T15:02:14;96250.25;;;1.58;70.14
5917;BME280;2984;42.656;23.300;2022-12-19T15:07:19;96098.28;;;1.06;71.97
5917;BME280;2984;42.656;23.300;2022-12-19T15:17:18;96141.59;;;0.61;68.03
5917;BME280;2984;42.656;23.300;2022-12-19T15:22:17;96206.34;;;1.13;65.55
5917;BME280;2984;42.656;23.300;2022-12-19T15:24:46;96233.53;;;1.20;63.86
5917;BME280;2984;42.656;23.300;2022-12-19T15:27:16;96248.97;;;1.29;64.89
5917;BME280;2984;42.656;23.300;2022-12-19T15:29:44;96187.69;;;0.70;65.68
5917;BME280;2984;42.656;23.300;2022-12-19T15:32:16;96222.53;;;0.92;67.15
5917;BME280;2984;42.656;23.300;2022-12-19T15:34:45;96250.06;;;1.03;68.20
5917;BME280;2984;42.656;23.300;2022-12-19T15:37:15;96257.28;;;0.98;67.98
5917;BME280;2984;42.656;23.300;2022-12-19T15:39:44;96261.59;;;1.15;68.08
5917;BME280;2984;42.656;23.300;2022-12-19T15:42:17;96253.59;;;1.11;68.13
5917;BME280;2984;42.656;23.300;2022-12-19T15:44:50;96259.56;;;1.08;67.73
5917;BME280;2984;42.656;23.300;2022-12-19T15:47:28;96272.75;;;1.15;66.66
5917;BME280;2984;42.656;23.300;2022-12-19T15:49:58;96256.22;;;1.17;68.46
5917;BME280;2984;42.656;23.300;2022-12-19T15:52:29;96280.41;;;1.14;69.77
5917;BME280;2984;42.656;23.300;2022-12-19T15:54:58;96265.84;;;1.00;72.05
5917;BME280;2984;42.656;23.300;2022-12-19T15:57:29;96178.72;;;0.41;72.49
5917;BME280;2984;42.656;23.300;2022-12-19T16:00:02;96263.38;;;0.74;73.92
5917;BME280;2984;42.656;23.300;2022-12-19T16:02:36;96246.78;;;0.53;74.30
5917;BME280;2984;42.656;23.300;2022-12-19T16:07:32;96265.78;;;0.62;75.46
5917;BME280;2984;42.656;23.300;2022-12-19T16:10:02;96206.22;;;0.37;75.27
5917;BME280;2984;42.656;23.300;2022-12-19T16:12:33;96268.22;;;0.66;74.98
5917;BME280;2984;42.656;23.300;2022-12-19T16:15:05;96261.88;;;0.65;75.24
5917;BME280;2984;42.656;23.300;2022-12-19T16:17:37;96245.31;;;0.60;74.87
5917;BME280;2984;42.656;23.300;2022-12-19T16:20:14;96246.06;;;0.53;74.50
5917;BME280;2984;42.656;23.300;2022-12-19T16:22:43;96265.81;;;0.78;75.11
5917;BME280;2984;42.656;23.300;2022-12-19T16:25:12;96274.59;;;0.82;75.25
5917;BME280;2984;42.656;23.300;2022-12-19T16:27:42;96275.63;;;0.63;75.50
5917;BME280;2984;42.656;23.300;2022-12-19T16:30:18;96279.50;;;0.53;75.94
5917;BME280;2984;42.656;23.300;2022-12-19T16:32:50;96279.31;;;0.58;76.43
5917;BME280;2984;42.656;23.300;2022-12-19T16:35:21;96281.84;;;0.41;76.44
5917;BME280;2984;42.656;23.300;2022-12-19T16:37:50;96281.84;;;0.33;76.87
5917;BME280;2984;42.656;23.300;2022-12-19T16:40:21;96292.75;;;0.67;75.85
5917;BME280;2984;42.656;23.300;2022-12-19T16:42:56;96285.50;;;0.72;75.06
5917;BME280;2984;42.656;23.300;2022-12-19T16:45:25;96260.56;;;0.59;74.87
5917;BME280;2984;42.656;23.300;2022-12-19T16:47:57;96287.19;;;0.67;75.56
5917;BME280;2984;42.656;23.300;2022-12-19T16:50:28;96264.63;;;0.50;75.59
5917;BME280;2984;42.656;23.300;2022-12-19T16:52:57;96265.78;;;0.62;74.67
5917;BME280;2984;42.656;23.300;2022-12-19T16:55:26;96285.69;;;0.74;75.32
5917;BME280;2984;42.656;23.300;2022-12-19T16:57:55;96283.38;;;1.09;73.59
5917;BME280;2984;42.656;23.300;2022-12-19T17:00:24;96278.56;;;0.50;74.94
5917;BME280;2984;42.656;23.300;2022-12-19T17:02:54;96281.41;;;0.65;75.82
5917;BME280;2984;42.656;23.300;2022-12-19T17:05:31;96272.19;;;0.42;75.48
5917;BME280;2984;42.656;23.300;2022-12-19T17:08:05;96281.97;;;0.28;75.59
5917;BME280;2984;42.656;23.300;2022-12-19T17:10:39;96233.41;;;-0.28;75.77
5917;BME280;2984;42.656;23.300;2022-12-19T17:13:11;96267.41;;;0.07;76.40
5917;BME280;2984;42.656;23.300;2022-12-19T17:15:42;96278.28;;;0.25;75.43
5917;BME280;2984;42.656;23.300;2022-12-19T17:18:14;96246.88;;;-0.11;75.99
5917;BME280;2984;42.656;23.300;2022-12-19T17:20:46;96277.72;;;0.27;75.72
5917;BME280;2984;42.656;23.300;2022-12-19T17:23:17;96278.50;;;-0.01;75.65
5917;BME280;2984;42.656;23.300;2022-12-19T17:25:47;96280.19;;;0.02;75.37
5917;BME280;2984;42.656;23.300;2022-12-19T17:28:16;96282.94;;;-0.06;75.61
5917;BME280;2984;42.656;23.300;2022-12-19T17:30:48;96293.75;;;0.06;75.09
5917;BME280;2984;42.656;23.300;2022-12-19T17:33:19;96285.59;;;0.08;74.75
5917;BME280;2984;42.656;23.300;2022-12-19T17:35:51;96281.88;;;0.05;73.97
5917;BME280;2984;42.656;23.300;2022-12-19T17:38:20;96287.63;;;-0.01;72.88
5917;BME280;2984;42.656;23.300;2022-12-19T17:40:48;96291.44;;;0.68;72.35
5917;BME280;2984;42.656;23.300;2022-12-19T17:43:17;96295.03;;;0.33;70.99
5917;BME280;2984;42.656;23.300;2022-12-19T17:45:46;96264.53;;;-0.09;69.76
5917;BME280;2984;42.656;23.300;2022-12-19T17:48:22;96289.88;;;0.09;70.06
5917;BME280;2984;42.656;23.300;2022-12-19T17:50:55;96282.81;;;0.08;69.35
5917;BME280;2984;42.656;23.300;2022-12-19T17:53:24;96289.44;;;0.33;71.10
5917;BME280;2984;42.656;23.300;2022-12-19T17:55:53;96265.47;;;-0.06;69.90
5917;BME280;2984;42.656;23.300;2022-12-19T17:58:22;96283.91;;;0.05;69.28
5917;BME280;2984;42.656;23.300;2022-12-19T18:00:51;96286.50;;;0.03;69.20
5917;BME280;2984;42.656;23.300;2022-12-19T18:03:21;96278.50;;;-0.01;69.72
5917;BME280;2984;42.656;23.300;2022-12-19T18:05:54;96277.38;;;0.02;70.77
5917;BME280;2984;42.656;23.300;2022-12-19T18:08:25;96259.03;;;-0.29;69.24
5917;BME280;2984;42.656;23.300;2022-12-19T18:10:55;96276.75;;;-0.12;70.02
5917;BME280;2984;42.656;23.300;2022-12-19T18:13:25;96261.50;;;-0.18;69.62
5917;BME280;2984;42.656;23.300;2022-12-19T18:15:56;96283.28;;;-0.09;68.55
5917;BME280;2984;42.656;23.300;2022-12-19T18:18:28;96252.66;;;0.27;70.22
5917;BME280;2984;42.656;23.300;2022-12-19T18:21:00;96240.44;;;-0.27;67.52
5917;BME280;2984;42.656;23.300;2022-12-19T18:23:29;96243.66;;;-0.23;68.62
5917;BME280;2984;42.656;23.300;2022-12-19T18:25:58;96289.88;;;0.09;68.05
5917;BME280;2984;42.656;23.300;2022-12-19T18:28:26;96289.59;;;-0.09;68.01
5917;BME280;2984;42.656;23.300;2022-12-19T18:30:57;96289.34;;;0.10;67.60
5917;BME280;2984;42.656;23.300;2022-12-19T18:33:27;96260.13;;;-0.53;68.89
5917;BME280;2984;42.656;23.300;2022-12-19T18:36:02;96285.84;;;-0.40;68.48
5917;BME280;2984;42.656;23.300;2022-12-19T18:38:31;96261.69;;;-0.45;68.15
5917;BME280;2984;42.656;23.300;2022-12-19T18:41:00;96271.25;;;-0.53;68.37
5917;BME280;2984;42.656;23.300;2022-12-19T18:43:28;96298.28;;;-0.12;69.16
5917;BME280;2984;42.656;23.300;2022-12-19T18:45:58;96287.13;;;-0.41;67.89
5917;BME280;2984;42.656;23.300;2022-12-19T18:48:28;96290.88;;;-0.10;67.68
5917;BME280;2984;42.656;23.300;2022-12-19T18:51:02;96274.22;;;-0.59;67.66
5917;BME280;2984;42.656;23.300;2022-12-19T18:53:32;96294.03;;;-0.42;68.58
5917;BME280;2984;42.656;23.300;2022-12-19T18:56:01;96277.75;;;-0.30;69.28
5917;BME280;2984;42.656;23.300;2022-12-19T18:58:30;96300.72;;;-0.37;68.25
5917;BME280;2984;42.656;23.300;2022-12-19T19:01:01;96305.75;;;-0.36;68.24
5917;BME280;2984;42.656;23.300;2022-12-19T19:03:32;96304.50;;;-0.27;67.58
5917;BME280;2984;42.656;23.300;2022-12-19T19:06:05;96221.38;;;-0.51;69.57
5917;BME280;2984;42.656;23.300;2022-12-19T19:08:39;96301.91;;;-0.25;67.49
5917;BME280;2984;42.656;23.300;2022-12-19T19:11:08;96306.59;;;-0.20;67.78
5917;BME280;2984;42.656;23.300;2022-12-19T19:13:36;96312.63;;;-0.08;67.94
5917;BME280;2984;42.656;23.300;2022-12-19T19:16:13;96314.22;;;-0.20;67.46
5917;BME280;2984;42.656;23.300;2022-12-19T19:18:43;96322.22;;;-0.17;67.53
5917;BME280;2984;42.656;23.300;2022-12-19T19:21:17;96300.25;;;-0.28;67.46
5917;BME280;2984;42.656;23.300;2022-12-19T19:23:48;96312.31;;;-0.25;68.29
5917;BME280;2984;42.656;23.300;2022-12-19T19:26:19;96317.25;;;-0.11;67.80
5917;BME280;2984;42.656;23.300;2022-12-19T19:28:48;96313.81;;;-0.24;68.21
5917;BME280;2984;42.656;23.300;2022-12-19T19:31:18;96315.47;;;-0.29;68.94
5917;BME280;2984;42.656;23.300;2022-12-19T19:33:52;96312.91;;;-0.19;69.40
5917;BME280;2984;42.656;23.300;2022-12-19T19:36:27;96263.97;;;-0.64;68.48
5917;BME280;2984;42.656;23.300;2022-12-19T19:38:58;96291.50;;;-0.53;69.51
5917;BME280;2984;42.656;23.300;2022-12-19T19:41:26;96300.38;;;-0.54;69.36
5917;BME280;2984;42.656;23.300;2022-12-19T19:44:00;96288.88;;;-0.58;69.64
5917;BME280;2984;42.656;23.300;2022-12-19T19:46:29;96326.00;;;-0.07;69.27
5917;BME280;2984;42.656;23.300;2022-12-19T19:48:58;96322.84;;;-0.31;69.25
5917;BME280;2984;42.656;23.300;2022-12-19T19:51:29;96285.09;;;-0.68;69.51
5917;BME280;2984;42.656;23.300;2022-12-19T19:53:58;96327.47;;;-0.34;69.61
5917;BME280;2984;42.656;23.300;2022-12-19T19:56:26;96301.06;;;-0.41;69.43
5917;BME280;2984;42.656;23.300;2022-12-19T19:58:57;96338.06;;;-0.32;69.97
5917;BME280;2984;42.656;23.300;2022-12-19T20:01:26;96325.44;;;-0.33;69.96
5917;BME280;2984;42.656;23.300;2022-12-19T20:03:56;96336.38;;;-0.36;69.75
5917;BME280;2984;42.656;23.300;2022-12-19T20:06:25;96335.56;;;-0.44;70.95
5917;BME280;2984;42.656;23.300;2022-12-19T20:08:56;96321.31;;;-0.61;70.31
5917;BME280;2984;42.656;23.300;2022-12-19T20:11:25;96332.09;;;-0.37;70.62
5917;BME280;2984;42.656;23.300;2022-12-19T20:13:54;96322.72;;;-0.67;70.53
5917;BME280;2984;42.656;23.300;2022-12-19T20:16:22;96336.25;;;-0.72;70.95
5917;BME280;2984;42.656;23.300;2022-12-19T20:18:51;96320.44;;;-0.77;70.88
5917;BME280;2984;42.656;23.300;2022-12-19T20:21:20;96307.59;;;-0.80;70.76
5917;BME280;2984;42.656;23.300;2022-12-19T20:23:49;96318.47;;;-0.68;69.90
5917;BME280;2984;42.656;23.300;2022-12-19T20:26:20;96313.28;;;-0.64;70.88
5917;BME280;2984;42.656;23.300;2022-12-19T20:28:49;96279.91;;;-1.06;70.07
5917;BME280;2984;42.656;23.300;2022-12-19T20:31:20;96302.38;;;-0.62;69.87
5917;BME280;2984;42.656;23.300;2022-12-19T20:33:50;96296.25;;;-0.61;69.17
5917;BME280;2984;42.656;23.300;2022-12-19T20:36:21;96298.44;;;-0.88;69.61
5917;BME280;2984;42.656;23.300;2022-12-19T20:38:50;96283.72;;;-0.75;70.48
5917;BME280;2984;42.656;23.300;2022-12-19T20:41:22;96305.13;;;-1.04;70.22
5917;BME280;2984;42.656;23.300;2022-12-19T20:43:51;96298.28;;;-1.03;70.78
5917;BME280;2984;42.656;23.300;2022-12-19T20:46:21;96300.31;;;-1.24;70.75
5917;BME280;2984;42.656;23.300;2022-12-19T20:48:50;96286.44;;;-1.37;71.38
5917;BME280;2984;42.656;23.300;2022-12-19T20:51:22;96314.28;;;-1.17;71.11
5917;BME280;2984;42.656;23.300;2022-12-19T20:53:52;96320.38;;;-0.84;69.82
5917;BME280;2984;42.656;23.300;2022-12-19T20:56:23;96308.06;;;-1.10;70.38
5917;BME280;2984;42.656;23.300;2022-12-19T20:58:53;96309.16;;;-0.92;70.56
5917;BME280;2984;42.656;23.300;2022-12-19T21:01:23;96297.06;;;-1.15;70.36
5917;BME280;2984;42.656;23.300;2022-12-19T21:03:52;96305.38;;;-0.60;72.93
5917;BME280;2984;42.656;23.300;2022-12-19T21:06:21;96271.03;;;-0.84;69.21
5917;BME280;2984;42.656;23.300;2022-12-19T21:08:52;96293.53;;;-1.16;70.84
5917;BME280;2984;42.656;23.300;2022-12-19T21:11:24;96286.16;;;-1.13;71.23
5917;BME280;2984;42.656;23.300;2022-12-19T21:13:53;96289.19;;;-1.03;71.31
5917;BME280;2984;42.656;23.300;2022-12-19T21:16:22;96298.50;;;-1.01;72.20
5917;BME280;2984;42.656;23.300;2022-12-19T21:18:51;96301.72;;;-1.31;71.41
5917;BME280;2984;42.656;23.300;2022-12-19T21:21:25;96301.25;;;-1.22;72.13
5917;BME280;2984;42.656;23.300;2022-12-19T21:23:55;96296.41;;;-1.42;71.70
5917;BME280;2984;42.656;23.300;2022-12-19T21:26:26;96288.78;;;-1.08;73.74
5917;BME280;2984;42.656;23.300;2022-12-19T21:28:55;96282.75;;;-1.19;71.36
5917;BME280;2984;42.656;23.300;2022-12-19T21:31:27;96293.03;;;-1.27;71.33
5917;BME280;2984;42.656;23.300;2022-12-19T21:33:57;96303.16;;;-1.17;71.68
5917;BME280;2984;42.656;23.300;2022-12-19T21:36:28;96283.50;;;-1.53;72.44
5917;BME280;2984;42.656;23.300;2022-12-19T21:38:58;96300.66;;;-1.07;71.45
5917;BME280;2984;42.656;23.300;2022-12-19T21:41:30;96315.34;;;-1.20;72.04
5917;BME280;2984;42.656;23.300;2022-12-19T21:43:59;96294.63;;;-1.53;72.54
5917;BME280;2984;42.656;23.300;2022-12-19T21:46:29;96313.94;;;-1.47;72.66
5917;BME280;2984;42.656;23.300;2022-12-19T21:48:59;96314.06;;;-1.53;73.25
5917;BME280;2984;42.656;23.300;2022-12-19T21:51:30;96293.88;;;-1.53;73.65
5917;BME280;2984;42.656;23.300;2022-12-19T21:54:00;96294.19;;;-1.57;73.78
5917;BME280;2984;42.656;23.300;2022-12-19T21:56:34;96297.88;;;-1.41;73.77
5917;BME280;2984;42.656;23.300;2022-12-19T21:59:05;96301.38;;;-1.27;73.20
5917;BME280;2984;42.656;23.300;2022-12-19T22:01:34;96288.81;;;-0.87;76.92
5917;BME280;2984;42.656;23.300;2022-12-19T22:04:05;96291.63;;;-1.21;73.56
5917;BME280;2984;42.656;23.300;2022-12-19T22:06:36;96276.91;;;-1.29;74.83
5917;BME280;2984;42.656;23.300;2022-12-19T22:09:07;96277.16;;;-1.40;74.77
5917;BME280;2984;42.656;23.300;2022-12-19T22:11:38;96272.78;;;-1.49;75.64
5917;BME280;2984;42.656;23.300;2022-12-19T22:14:09;96266.56;;;-1.41;75.94
5917;BME280;2984;42.656;23.300;2022-12-19T22:16:38;96269.78;;;-1.37;76.72
5917;BME280;2984;42.656;23.300;2022-12-19T22:19:07;96270.13;;;-1.54;76.34
5917;BME280;2984;42.656;23.300;2022-12-19T22:21:37;96268.72;;;-1.48;76.26
5917;BME280;2984;42.656;23.300;2022-12-19T22:24:08;96267.94;;;-1.35;76.87
5917;BME280;2984;42.656;23.300;2022-12-19T22:26:40;96261.81;;;-1.54;76.32
5917;BME280;2984;42.656;23.300;2022-12-19T22:29:12;96272.88;;;-1.41;77.06
5917;BME280;2984;42.656;23.300;2022-12-19T22:31:41;96269.94;;;-1.56;76.69
5917;BME280;2984;42.656;23.300;2022-12-19T22:34:12;96272.84;;;-1.07;77.51
5917;BME280;2984;42.656;23.300;2022-12-19T22:36:42;96272.94;;;-1.33;75.45
5917;BME280;2984;42.656;23.300;2022-12-19T22:39:12;96276.25;;;-1.35;75.21
5917;BME280;2984;42.656;23.300;2022-12-19T22:41:45;96271.94;;;-1.23;75.43
5917;BME280;2984;42.656;23.300;2022-12-19T22:44:15;96256.22;;;-1.41;74.40
5917;BME280;2984;42.656;23.300;2022-12-19T22:46:45;96265.63;;;-1.44;74.29
5917;BME280;2984;42.656;23.300;2022-12-19T22:49:13;96268.13;;;-1.33;73.81
5917;BME280;2984;42.656;23.300;2022-12-19T22:51:42;96268.06;;;-1.40;74.80
5917;BME280;2984;42.656;23.300;2022-12-19T22:54:12;96273.91;;;-1.31;75.56
5917;BME280;2984;42.656;23.300;2022-12-19T22:56:41;96237.44;;;-1.61;75.64
5917;BME280;2984;42.656;23.300;2022-12-19T22:59:13;96231.03;;;-1.35;74.48
5917;BME280;2984;42.656;23.300;2022-12-19T23:01:42;96261.50;;;-1.30;74.54
5917;BME280;2984;42.656;23.300;2022-12-19T23:04:12;96259.56;;;-0.80;75.82
5917;BME280;2984;42.656;23.300;2022-12-19T23:06:42;96257.25;;;-1.10;74.19
5917;BME280;2984;42.656;23.300;2022-12-19T23:09:14;96252.84;;;-1.26;73.62
5917;BME280;2984;42.656;23.300;2022-12-19T23:11:47;96218.53;;;-1.29;74.39
5917;BME280;2984;42.656;23.300;2022-12-19T23:14:19;96249.47;;;-1.12;73.39
5917;BME280;2984;42.656;23.300;2022-12-19T23:16:48;96235.75;;;-1.30;73.90
5917;BME280;2984;42.656;23.300;2022-12-19T23:19:16;96248.28;;;-1.37;73.85
5917;BME280;2984;42.656;23.300;2022-12-19T23:21:46;96255.03;;;-1.46;74.30
5917;BME280;2984;42.656;23.300;2022-12-19T23:24:15;96231.50;;;-1.65;74.44
5917;BME280;2984;42.656;23.300;2022-12-19T23:26:43;96249.97;;;-1.34;74.81
5917;BME280;2984;42.656;23.300;2022-12-19T23:29:14;96259.22;;;-0.77;73.33
5917;BME280;2984;42.656;23.300;2022-12-19T23:31:46;96246.31;;;0.26;69.64
5917;BME280;2984;42.656;23.300;2022-12-19T23:34:15;96257.75;;;0.59;67.63
5917;BME280;2984;42.656;23.300;2022-12-19T23:36:44;96255.47;;;1.09;66.37
5917;BME280;2984;42.656;23.300;2022-12-19T23:39:13;96260.97;;;2.07;63.22
5917;BME280;2984;42.656;23.300;2022-12-19T23:41:42;96263.28;;;2.49;60.65
5917;BME280;2984;42.656;23.300;2022-12-19T23:44:11;96265.13;;;1.15;64.39
5917;BME280;2984;42.656;23.300;2022-12-19T23:46:39;96269.59;;;0.95;64.11
5917;BME280;2984;42.656;23.300;2022-12-19T23:49:11;96263.69;;;0.55;66.39
5917;BME280;2984;42.656;23.300;2022-12-19T23:51:40;96255.09;;;1.73;64.83
5917;BME280;2984;42.656;23.300;2022-12-19T23:54:09;96242.72;;;2.06;61.35
5917;BME280;2984;42.656;23.300;2022-12-19T23:56:38;96243.38;;;1.59;62.11
5917;BME280;2984;42.656;23.300;2022-12-19T23:59:07;96235.94;;;1.24;62.65
